Latest Weather Observations for Mount Buller

IDV60801

Issued at 8:32 pm EST Sunday 24 July 2016 (issued every 30 minutes, with the page automatically refreshed every 10 minutes)

About weather observations | Map of weather stations | Latest weather observations for VIC | Other Formats
Station Details ID: 083024 Name: MOUNT BULLER Lat: -37.15 Lon: 146.44 Height: 1707.0 m
Data from the previous 72 hours. | See also: Recent months at Mount Buller
Date/Time
EST
Temp
°C
App
Temp
°C
Dew
Point
°C
Rel
Hum
%
Delta-T
°C
Wind Press
QNH
hPa
Press
MSL
hPa
Rain since
9am
mm
Dir  Spd
km/h
Gust
km/h
Spd
kts
Gust
kts
24/08:30pm -3.0 -10.7 -3.1 99 -0.1 N 28 41 15 22 - - 0.2
24/08:19pm -3.1 -11.2 -3.2 99 -0.1 N 30 48 16 26 - - 0.2
24/08:00pm -3.2 -11.9 -3.3 99 -0.1 N 33 46 18 25 - - 0.2
24/07:31pm -3.5 -12.2 -3.6 99 -0.1 NNW 33 52 18 28 - - 0.2
24/07:30pm -3.5 -12.0 -3.6 99 -0.1 NNW 32 44 17 24 - - 0.2
24/07:00pm -3.7 -10.0 -3.8 99 -0.1 N 20 30 11 16 - - 0.2
24/06:30pm -3.7 -9.4 -3.8 99 -0.1 NNW 17 24 9 13 - - 0.2
24/06:00pm -3.6 -9.3 -3.7 99 -0.1 N 17 28 9 15 - - 0.2
24/05:30pm -3.7 -9.4 -3.8 99 -0.1 NNW 17 24 9 13 - - 0.2
24/05:00pm -3.9 -8.9 -4.0 99 -0.1 NNW 13 20 7 11 - - 0.2
24/04:30pm -3.9 -8.9 -4.0 99 -0.1 NNW 13 19 7 10 - - 0.2
24/04:00pm -3.8 -10.1 -3.9 99 -0.1 NNW 20 28 11 15 - - 0.2
24/03:30pm -3.6 -10.6 -3.7 99 -0.1 NNW 24 39 13 21 - - 0.2
24/03:00pm -3.6 -10.2 -3.7 99 -0.1 N 22 35 12 19 - - 0.2
24/02:30pm -3.8 -9.9 -3.9 99 -0.1 N 19 30 10 16 - - 0.0
24/02:00pm -3.8 -10.5 -3.9 99 -0.1 N 22 32 12 17 - - 0.0
24/01:30pm -4.0 -11.1 -4.1 99 -0.1 N 24 41 13 22 - - 0.0
24/01:00pm -3.8 -10.8 -3.9 99 -0.1 N 24 37 13 20 - - 0.0
24/12:30pm -3.9 -11.0 -4.0 99 -0.1 N 24 39 13 21 - - 0.0
24/12:00pm -4.0 -11.8 -4.1 99 -0.1 NNW 28 37 15 20 - - 0.0
24/11:30am -4.0 -12.2 -4.1 99 -0.1 NNW 30 43 16 23 - - 0.0
24/11:00am -4.2 -13.4 -4.3 99 -0.2 NNW 35 61 19 33 - - 0.0
24/10:30am -4.7 -13.0 -4.8 99 -0.2 NNW 30 50 16 27 - - 0.0
24/10:29am -4.7 -12.6 -5.0 98 -0.1 NNW 28 50 15 27 - - 0.0
24/10:00am -4.6 -12.1 -4.7 99 -0.2 NNW 26 43 14 23 - - 0.0
24/09:30am -4.5 -12.0 -4.6 99 -0.2 N 26 43 14 23 - - 0.0
24/09:00am -4.7 -11.9 -5.0 98 -0.1 N 24 46 13 25 - - 0.6
24/08:30am -4.8 -10.3 -5.1 98 -0.1 N 15 24 8 13 - - 0.6
24/08:00am -5.0 -11.4 -5.3 98 -0.1 NW 20 37 11 20 - - 0.6
24/07:30am -4.9 -10.4 -5.2 98 -0.1 NNW 15 24 8 13 - - 0.6
24/07:00am -4.7 -11.1 -4.8 99 -0.2 NNW 20 32 11 17 - - 0.6
24/06:30am -4.8 -10.6 -5.1 98 -0.1 N 17 30 9 16 - - 0.6
24/06:00am -5.0 -10.1 -5.3 98 -0.1 NNW 13 22 7 12 - - 0.6
24/05:30am -5.0 -10.9 -5.3 98 -0.1 NNW 17 32 9 17 - - 0.6
24/05:00am -5.1 -11.0 -5.4 98 -0.1 NNW 17 26 9 14 - - 0.6
24/04:30am -5.0 -12.2 -5.3 98 -0.1 NW 24 35 13 19 - - 0.6
24/04:00am -4.9 -12.1 -5.2 98 -0.1 NW 24 39 13 21 - - 0.6
24/03:30am -5.1 -11.5 -5.4 98 -0.1 NW 20 37 11 20 - - 0.6
24/03:00am -5.0 -9.7 -5.3 98 -0.1 WNW 11 32 6 17 - - 0.6
24/02:30am -5.1 -11.0 -5.4 98 -0.1 WNW 17 28 9 15 - - 0.6
24/02:00am -5.2 -10.3 -5.5 98 -0.1 W 13 19 7 10 - - 0.6
24/01:30am -5.0 -9.3 -5.3 98 -0.1 W 9 15 5 8 - - 0.6
24/01:00am -5.0 -10.1 -5.3 98 -0.1 W 13 19 7 10 - - 0.6
24/12:30am -4.8 -9.9 -5.1 98 -0.1 W 13 22 7 12 - - 0.6
24/12:00am -4.7 -8.0 -4.8 99 -0.2 WNW 4 6 2 3 - - 0.6
 
Date/Time
EST
Temp
°C
App
Temp
°C
Dew
Point
°C
Rel
Hum
%
Delta-T
°C
Wind Press
QNH
hPa
Press
MSL
hPa
Rain since
9am
mm
Dir  Spd
km/h
Gust
km/h
Spd
kts
Gust
kts
23/11:30pm -4.6 -8.5 -4.7 99 -0.2 W 7 9 4 5 - - 0.6
23/11:00pm -4.5 -8.4 -4.6 99 -0.2 W 7 11 4 6 - - 0.6
23/10:30pm -4.5 -8.4 -4.6 99 -0.2 W 7 11 4 6 - - 0.6
23/10:00pm -4.6 -8.9 -4.7 99 -0.2 W 9 15 5 8 - - 0.6
23/09:30pm -4.6 -10.0 -4.7 99 -0.2 W 15 19 8 10 - - 0.6
23/09:00pm -4.8 -10.3 -5.1 98 -0.1 W 15 22 8 12 - - 0.6
23/08:30pm -4.5 -8.8 -4.6 99 -0.2 WNW 9 15 5 8 - - 0.4
23/08:00pm -4.4 -8.7 -4.5 99 -0.2 WNW 9 15 5 8 - - 0.2
23/07:30pm -4.5 -10.3 -4.6 99 -0.2 W 17 24 9 13 - - 0.2
23/07:00pm -4.4 -9.4 -4.5 99 -0.2 WNW 13 22 7 12 - - 0.0
23/06:30pm -4.5 -10.3 -4.6 99 -0.2 WNW 17 28 9 15 - - 0.0
23/06:00pm -4.5 -9.9 -4.6 99 -0.2 W 15 26 8 14 - - 0.0
23/05:30pm -4.7 -11.1 -4.8 99 -0.2 W 20 32 11 17 - - 0.0
23/05:00pm -4.6 -11.4 -4.7 99 -0.2 W 22 30 12 16 - - 0.0
23/04:30pm -4.6 -9.6 -4.7 99 -0.2 WNW 13 22 7 12 - - 0.0
23/04:00pm -4.9 -10.0 -5.2 98 -0.1 W 13 20 7 11 - - 0.0
23/03:30pm -5.2 -11.1 -5.5 98 -0.1 W 17 24 9 13 - - 0.0
23/03:00pm -5.4 -11.7 -5.7 98 -0.1 W 19 28 10 15 - - 0.0
23/02:30pm -5.5 -11.8 -5.8 98 -0.1 W 19 24 10 13 - - 0.0
23/02:00pm -5.3 -10.4 -5.6 98 -0.1 W 13 22 7 12 - - 0.0
23/01:30pm -5.2 -10.3 -5.5 98 -0.1 W 13 22 7 12 - - 0.0
23/01:00pm -5.2 -10.3 -5.5 98 -0.1 W 13 20 7 11 - - 0.0
23/12:30pm -5.7 -11.3 -6.0 98 -0.1 W 15 22 8 12 - - 0.0
23/12:00pm -5.7 -11.3 -6.0 98 -0.1 W 15 20 8 11 - - 0.0
23/11:30am -5.5 -10.7 -5.8 98 -0.1 W 13 19 7 10 - - 0.0
23/11:00am -5.6 -10.8 -5.9 98 -0.1 W 13 19 7 10 - - 0.0
23/10:30am -5.6 -10.4 -5.9 98 -0.1 W 11 15 6 8 - - 0.0
23/10:00am -5.1 -9.8 -5.4 98 -0.1 WSW 11 17 6 9 - - 0.0
23/09:30am -4.6 -9.6 -4.7 99 -0.2 WSW 13 24 7 13 - - 0.0
23/09:00am -3.9 -10.0 -4.0 99 -0.1 W 19 24 10 13 - - 64.2
23/08:30am -3.5 -11.7 -3.6 99 -0.1 W 30 46 16 25 - - 64.2
23/08:00am -3.3 -13.1 -3.4 99 -0.1 W 39 59 21 32 - - 64.0
23/07:38am -3.1 -11.8 -3.2 99 -0.1 W 33 52 18 28 - - 64.0
23/07:30am -3.1 -11.8 -3.2 99 -0.1 W 33 46 18 25 - - 64.0
23/07:00am -3.2 -11.9 -3.3 99 -0.1 WNW 33 59 18 32 - - 63.8
23/06:30am -3.0 -12.0 -3.1 99 -0.1 W 35 56 19 30 - - 63.6
23/06:00am -2.6 -10.6 -2.7 99 -0.1 WNW 30 48 16 26 - - 63.2
23/05:30am -2.6 -11.6 -2.7 99 -0.1 WNW 35 57 19 31 - - 63.0
23/05:06am -2.4 -11.4 -2.5 99 -0.1 WNW 35 78 19 42 - - 62.4
23/05:00am -2.4 -11.0 -2.5 99 -0.1 WNW 33 57 18 31 - - 62.2
23/04:30am -2.5 -12.6 -2.6 99 -0.1 WNW 41 65 22 35 - - 61.8
23/04:00am -2.4 -11.8 -2.5 99 -0.1 WNW 37 76 20 41 - - 61.4
23/03:35am -2.2 -11.5 -2.3 99 -0.1 WNW 37 80 20 43 - - 60.8
23/03:30am -2.2 -10.8 -2.3 99 -0.1 WNW 33 61 18 33 - - 60.6
23/03:20am -2.5 -11.1 -2.6 99 -0.1 WNW 33 107 18 58 - - 60.4
23/03:17am -2.4 -10.0 -2.5 99 -0.1 WNW 28 59 15 32 - - 60.4
23/03:00am -2.1 -8.2 -2.2 99 -0.1 WNW 20 50 11 27 - - 59.8
23/02:35am -2.0 -8.8 -2.1 99 -0.1 WNW 24 65 13 35 - - 59.6
23/02:30am -2.0 -7.9 -2.1 99 -0.1 WNW 19 59 10 32 - - 59.4
23/02:00am -1.6 -7.4 -1.7 99 0.0 N 19 50 10 27 - - 58.6
23/01:42am -1.8 -10.7 -1.9 99 -0.1 WNW 35 87 19 47 - - 58.2
23/01:31am -1.5 -8.6 -1.6 99 0.0 WNW 26 69 14 37 - - 57.6
23/01:30am -1.3 -8.0 -1.4 99 0.0 WNW 24 57 13 31 - - 57.6
23/01:16am -1.1 -7.8 -1.2 99 0.0 WNW 24 67 13 36 - - 56.8
23/01:13am -1.2 -7.2 -1.3 99 0.0 WNW 20 57 11 31 - - 56.6
23/01:00am -0.9 -6.3 -1.0 99 0.0 NW 17 56 9 30 - - 55.8
23/12:30am -1.1 -7.1 -1.2 99 0.0 WNW 20 56 11 30 - - 54.0
23/12:09am -1.1 -7.4 -1.2 99 0.0 NNW 22 69 12 37 - - 52.6
23/12:00am -1.0 -6.7 -1.1 99 0.0 N 19 72 10 39 - - 52.2
 
Date/Time
EST
Temp
°C
App
Temp
°C
Dew
Point
°C
Rel
Hum
%
Delta-T
°C
Wind Press
QNH
hPa
Press
MSL
hPa
Rain since
9am
mm
Dir  Spd
km/h
Gust
km/h
Spd
kts
Gust
kts
22/11:30pm -0.5 -7.9 -0.6 99 0.0 NNW 28 83 15 45 - - 50.8
22/11:00pm -0.5 -10.0 -0.6 99 0.0 NNW 39 70 21 38 - - 48.4
22/10:30pm -0.9 -8.3 -1.0 99 0.0 NNW 28 61 15 33 - - 47.0
22/10:25pm -1.1 -8.6 -1.2 99 0.0 NNW 28 61 15 33 - - 46.8
22/10:00pm -1.1 -6.5 -1.2 99 0.0 NNW 17 46 9 25 - - 45.6
22/09:30pm -0.6 -5.2 -0.7 99 0.0 NNW 13 35 7 19 - - 43.6
22/09:00pm -0.4 -6.3 -0.5 99 0.0 NNW 20 56 11 30 - - 41.4
22/08:52pm -0.2 -5.5 -0.3 99 0.0 NW 17 56 9 30 - - 40.8
22/08:30pm 0.0 -9.0 -0.1 99 0.0 WNW 37 70 20 38 - - 39.4
22/08:26pm 0.0 -7.7 -0.1 99 0.0 WNW 30 70 16 38 - - 39.0
22/08:00pm 0.0 -6.9 -0.1 99 0.0 WNW 26 52 14 28 - - 37.8
22/07:30pm 0.0 -7.7 -0.1 99 0.0 WNW 30 54 16 29 - - 36.6
22/07:26pm 0.0 -7.3 -0.1 99 0.0 WNW 28 54 15 29 - - 36.4
22/07:17pm 0.8 -8.1 0.7 99 0.0 NNW 37 69 20 37 - - 36.0
22/07:00pm 1.2 -10.9 1.1 99 0.0 N 54 83 29 45 - - 34.2
22/06:53pm 1.1 -9.5 1.0 99 0.0 N 46 83 25 45 - - 34.0
22/06:30pm 0.9 -8.4 0.8 99 0.0 N 39 65 21 35 - - 34.0
22/06:20pm 1.0 -8.3 0.9 99 0.0 N 39 72 21 39 - - 34.0
22/06:00pm 1.1 -7.0 1.0 99 0.0 N 33 54 18 29 - - 34.0
22/05:45pm 1.1 -6.4 1.0 99 0.0 N 30 69 16 37 - - 34.0
22/05:37pm 1.2 -5.9 1.1 99 0.0 N 28 46 15 25 - - 34.0
22/05:30pm 1.1 -4.9 1.0 99 0.0 NNW 22 50 12 27 - - 34.0
22/05:00pm 1.2 -5.2 1.1 99 0.0 NNW 24 50 13 27 - - 34.0
22/04:30pm 1.2 -4.4 1.1 99 0.0 N 20 41 11 22 - - 34.0
22/04:13pm 1.2 -5.9 1.1 99 0.0 NNW 28 56 15 30 - - 34.0
22/04:00pm 1.1 -5.3 1.0 99 0.0 NNW 24 41 13 22 - - 34.0
22/03:31pm 1.0 -6.2 0.9 99 0.0 NNW 28 52 15 28 - - 34.0
22/03:30pm 1.0 -6.2 0.9 99 0.0 NNW 28 44 15 24 - - 34.0
22/03:00pm 1.0 -6.2 0.9 99 0.0 NNW 28 59 15 32 - - 34.0
22/02:39pm 0.9 -6.3 0.8 99 0.0 NNW 28 59 15 32 - - 34.0
22/02:30pm 0.9 -5.5 0.8 99 0.0 NNW 24 52 13 28 - - 34.0
22/02:00pm 1.1 -6.1 1.0 99 0.0 NNW 28 69 15 37 - - 34.0
22/01:30pm 2.1 -8.3 2.0 99 0.0 NNW 46 85 25 46 - - 34.0
22/01:13pm 2.1 -7.4 2.0 99 0.0 NNW 41 82 22 44 - - 33.8
22/01:00pm 2.1 -5.3 2.0 99 0.0 NNW 30 72 16 39 - - 33.6
22/12:30pm 2.9 -4.0 2.8 99 0.0 NW 28 89 15 48 - - 31.6
22/12:23pm 2.9 -4.0 2.8 99 0.0 WNW 28 89 15 48 - - 31.2
22/12:22pm 3.0 -3.5 2.9 99 0.0 WNW 26 89 14 48 - - 31.0
22/12:08pm 3.7 -1.5 3.6 99 0.0 NW 20 63 11 34 - - 28.8
22/12:00pm 3.8 -0.8 3.7 99 0.0 NW 17 39 9 21 - - 26.6
22/11:30am 3.9 -1.3 3.8 99 0.0 NNW 20 52 11 28 - - 22.8
22/11:10am 4.8 -0.2 4.7 99 0.0 NW 20 63 11 34 - - 20.8
22/11:00am 5.2 -0.1 5.1 99 0.0 NW 22 67 12 36 - - 19.8
22/10:47am 5.4 -0.6 5.3 99 0.0 WNW 26 67 14 36 - - 18.8
22/10:41am 5.8 1.2 5.7 99 0.0 W 19 65 10 35 - - 18.6
22/10:30am 6.5 1.9 6.4 99 0.1 NNW 20 50 11 27 - - 18.4
22/10:06am 7.0 0.2 6.9 99 0.1 NW 32 78 17 42 - - 14.6
22/10:05am 7.0 0.2 6.9 99 0.1 NW 32 78 17 42 - - 14.6
22/10:00am 7.8 -3.9 7.7 99 0.1 NNW 59 117 32 63 - - 10.8
22/09:56am 7.7 -6.9 7.6 99 0.1 NNW 74 117 40 63 - - 7.6
22/09:30am 7.5 -7.9 7.4 99 0.1 NNW 78 124 42 67 - - 2.8
22/09:17am 7.6 -8.6 7.5 99 0.1 NNW 82 122 44 66 - - 1.8
22/09:07am 7.6 -3.6 7.5 99 0.1 NNW 56 98 30 53 - - 0.8
22/09:06am 7.6 -3.2 7.5 99 0.1 NNW 54 98 29 53 - - 0.8
22/09:00am 7.4 -4.1 7.3 99 0.1 NNW 57 98 31 53 - - 19.2
22/08:30am 7.6 -6.1 7.5 99 0.1 N 69 106 37 57 - - 16.8
22/08:00am 7.5 -8.3 7.4 99 0.1 NNW 80 120 43 65 - - 14.4
22/07:30am 7.5 -7.5 7.4 99 0.1 NNW 76 113 41 61 - - 12.4
22/07:00am 7.1 -8.8 7.0 99 0.1 NNW 80 106 43 57 - - 11.2
22/06:47am 6.9 -8.3 6.8 99 0.1 NNW 76 113 41 61 - - 11.0
22/06:31am 6.6 -6.9 6.5 99 0.1 N 67 109 36 59 - - 10.2
22/06:30am 6.5 -6.7 6.4 99 0.1 N 65 87 35 47 - - 10.0
22/06:00am 6.2 -8.8 6.1 99 0.0 N 74 106 40 57 - - 7.0
22/05:30am 5.7 -9.0 5.6 99 0.0 N 72 115 39 62 - - 4.8
22/05:12am 5.6 -8.7 5.5 99 0.0 N 70 109 38 59 - - 4.4
22/05:00am 5.6 -8.5 5.5 99 0.0 N 69 93 37 50 - - 3.8
22/04:54am 5.5 -9.2 5.4 99 0.0 NNW 72 115 39 62 - - 3.8
22/04:50am 5.4 -10.1 5.3 99 0.0 N 76 115 41 62 - - 3.8
22/04:43am 5.3 -8.5 5.2 99 0.0 N 67 111 36 60 - - 3.6
22/04:35am 5.3 -8.5 5.2 99 0.0 N 67 91 36 49 - - 3.6
22/04:33am 5.3 -8.9 5.2 99 0.0 N 69 95 37 51 - - 3.6
22/04:30am 5.4 -9.7 5.3 99 0.0 N 74 98 40 53 - - 3.6
22/04:00am 4.7 -8.9 4.6 99 0.0 N 65 91 35 49 - - 3.6
22/03:30am 4.3 -8.9 4.2 99 0.0 N 63 82 34 44 - - 3.6
22/03:00am 4.1 -8.8 4.0 99 0.0 N 61 80 33 43 - - 3.4
22/02:30am 3.9 -8.7 3.8 99 0.0 N 59 85 32 46 - - 3.4
22/02:00am 3.9 -7.3 3.8 99 0.0 N 52 76 28 41 - - 3.4
22/01:30am 3.8 -7.5 3.7 99 0.0 N 52 76 28 41 - - 3.4
22/01:01am 3.6 -6.2 3.5 99 0.0 N 44 65 24 35 - - 3.4
22/01:00am 3.7 -5.9 3.6 99 0.0 N 43 59 23 32 - - 3.4
22/12:30am 3.4 -5.8 3.3 99 0.0 N 41 61 22 33 - - 3.4
22/12:01am 3.2 -6.6 3.1 99 0.0 N 44 67 24 36 - - 3.4
22/12:00am 3.2 -6.6 3.1 99 0.0 N 44 57 24 31 - - 3.4
 
Date/Time
EST
Temp
°C
App
Temp
°C
Dew
Point
°C
Rel
Hum
%
Delta-T
°C
Wind Press
QNH
hPa
Press
MSL
hPa
Rain since
9am
mm
Dir  Spd
km/h
Gust
km/h
Spd
kts
Gust
kts
21/11:38pm 3.0 -5.2 2.9 99 0.0 N 35 54 19 29 - - 3.4
21/11:30pm 2.8 -6.2 2.7 99 0.0 N 39 54 21 29 - - 3.4
21/11:00pm 3.0 -5.5 2.9 99 0.0 N 37 50 20 27 - - 3.4
21/10:30pm 3.1 -5.4 3.0 99 0.0 N 37 46 20 25 - - 3.4
21/10:00pm 2.9 -5.7 2.8 99 0.0 N 37 46 20 25 - - 3.4
21/09:30pm 2.7 -5.9 2.6 99 0.0 N 37 50 20 27 - - 3.2
21/09:00pm 2.7 -4.2 2.6 99 0.0 N 28 35 15 19 - - 3.2

Other Formats:

Comma delimited format used in spreadsheet applications
http://www.bom.gov.au/fwo/IDV60801/IDV60801.94894.axf

JavaScript Object Notation format (JSON) in row-major order
http://www.bom.gov.au/fwo/IDV60801/IDV60801.94894.json